Flight Track Log - Related Links

Times and Time Zones

All times are in EDT time to prevent confusion due to time zone crossing. See the DAL2028 flight status page for this flight to view local times or setup timezone preferences in your user account.

Time Position Orientation Groundspeed Altitude Reporting Facility
EDT Latitude Longitude Course Direction KTS MPH feet Rate Location/Type
Fri 04:25:16 PM 28.4000 -81.3000 North 165 190 1,000  Level Orlando TRACON
Fri 04:26:41 PM 28.3333 -81.2333 139° Southeast 271 312 4,400 2,814 Climbing Orlando TRACON
Fri 04:27:41 PM 28.3500 -81.1500 77° East 287 330 7,800 3,211 Climbing Orlando TRACON
Fri 04:28:00 PM 28.8968 -81.3627 350° North  Level FlightAware Approximate
Fri 04:28:35 PM 28.4167 -81.1167 24° Northeast 289 333 10,500  Level Orlando TRACON
Fri 04:29:00 PM 29.0178 -81.3702 350° North  Level FlightAware Approximate
Fri 04:30:00 PM 29.1384 -81.3833 North  Level FlightAware Approximate
Fri 04:30:10 PM 28.5369 -81.1653 340° North 316 364 13,500  Level Jacksonville Center
Fri 04:31:10 PM 28.6356 -81.2036 341° North 344 396 16,200 2,650 Climbing Jacksonville Center
Fri 04:32:10 PM 28.7361 -81.2422 341° North 365 420 18,800 2,300 Climbing Jacksonville Center
Fri 04:33:10 PM 28.8389 -81.2856 340° North 385 443 20,800 2,000 Climbing Jacksonville Center
Fri 04:34:10 PM 28.9481 -81.3314 340° North 398 458 22,800 1,950 Climbing Jacksonville Center
Fri 04:35:10 PM 29.0572 -81.3842 337° Northwest 415 478 24,700 1,800 Climbing Jacksonville Center
Fri 04:36:10 PM 29.1706 -81.4325 340° North 435 501 26,400 1,600 Climbing Jacksonville Center
Fri 04:37:10 PM 29.2775 -81.4689 343° North 435 501 27,900 1,500 Climbing Jacksonville Center
Fri 04:38:10 PM 29.4069 -81.4861 353° North 441 507 29,400 1,600 Climbing Jacksonville Center
Fri 04:39:10 PM 29.5386 -81.5033 354° North 463 533 31,100 1,500 Climbing Jacksonville Center
Fri 04:40:10 PM 29.6683 -81.5231 352° North 469 540 32,400 1,400 Climbing Jacksonville Center
Fri 04:41:10 PM 29.8064 -81.5425 353° North 480 552 33,900 1,550 Climbing Jacksonville Center
Fri 04:42:10 PM 29.9381 -81.5622 353° North 480 552 35,500 1,350 Climbing Jacksonville Center
Fri 04:43:10 PM 30.0739 -81.5819 353° North 485 558 36,600 750 Climbing Jacksonville Center
Fri 04:44:10 PM 30.2267 -81.6017 354° North 490 564 37,000 200 Climbing Jacksonville Center
Fri 04:45:10 PM 30.3667 -81.6214 353° North 496 571 37,000  Level Jacksonville Center
Fri 04:46:10 PM 30.5067 -81.6461 351° North 503 579 37,000  Level Jacksonville Center
Fri 04:47:10 PM 30.6511 -81.6683 352° North 508 585 37,000  Level Jacksonville Center
Fri 04:48:10 PM 30.7892 -81.6931 351° North 508 585 37,000 450 Level Jacksonville Center
Fri 04:49:10 PM 30.9311 -81.6986 358° North 503 579 37,900 1,000 Climbing Jacksonville Center
Fri 04:50:10 PM 31.0708 -81.6797 North 498 573 39,000 550 Climbing Jacksonville Center
Fri 04:51:10 PM 31.2086 -81.6878 357° North 492 566 39,000  Level Jacksonville Center
Fri 04:52:10 PM 31.3469 -81.7178 350° North 492 566 39,000  Level Jacksonville Center
Fri 04:53:10 PM 31.4722 -81.7258 357° North 498 573 39,000  Level Jacksonville Center
Fri 04:54:10 PM 31.6308 -81.7214 North 519 597 39,000  Level Jacksonville Center
Fri 04:55:10 PM 31.7747 -81.7147 North 510 587 39,000  Level Jacksonville Center
Fri 04:56:10 PM 31.9042 -81.7131 North 515 593 39,000  Level Jacksonville Center
Fri 04:57:10 PM 32.0586 -81.7061 North 511 588 39,000  Level Jacksonville Center
Fri 04:58:10 PM 32.2028 -81.7017 North 505 581 39,000  Level Jacksonville Center
Fri 04:59:10 PM 32.3278 -81.6978 North 510 587 39,000  Level Jacksonville Center
Fri 05:00:10 PM 32.4844 -81.6956 North 504 580 39,000  Level Jacksonville Center
Fri 05:01:10 PM 32.6242 -81.6889 North 504 580 39,000  Level Jacksonville Center
Fri 05:02:10 PM 32.7661 -81.6819 North 498 573 39,000  Level Jacksonville Center
Fri 05:03:10 PM 32.9058 -81.6753 North 498 573 39,000  Level Jacksonville Center
Fri 05:04:10 PM 33.0458 -81.6733 North 498 573 39,000  Level Jacksonville Center
Fri 05:05:10 PM 33.1897 -81.6664 North 498 573 39,000  Level Jacksonville Center
Fri 05:06:10 PM 33.3275 -81.6619 North 498 573 39,000  Level Jacksonville Center
Fri 05:07:10 PM 33.4694 -81.6550 North 498 573 39,000 250 Level Jacksonville Center
Fri 05:08:10 PM 33.6092 -81.6506 North 498 573 39,500 619 Climbing Jacksonville Center
Fri 05:10:24 PM 33.9047 -81.6536 360° North 486 559 41,000 464 Climbing Atlanta Center
Fri 05:11:24 PM 34.0425 -81.6622 357° North 486 559 41,000  Level Atlanta Center
Fri 05:12:24 PM 34.1806 -81.6708 357° North 493 567 41,000  Level Atlanta Center
Fri 05:13:24 PM 34.3222 -81.6619 North 498 573 41,000  Level Atlanta Center
Fri 05:14:24 PM 34.4597 -81.6431 North 503 579 41,000  Level Atlanta Center
Fri 05:15:24 PM 34.6011 -81.6214 North 503 579 41,000  Level Atlanta Center
Fri 05:16:24 PM 34.7575 -81.6092 North 498 573 41,000  Level Atlanta Center
Fri 05:17:24 PM 34.8969 -81.5975 North 498 573 41,000  Level Atlanta Center
Fri 05:18:24 PM 35.0219 -81.5886 North 498 573 41,000  Level Atlanta Center
Fri 05:19:24 PM 35.1617 -81.5819 North 498 573 41,000  Level Atlanta Center
Fri 05:20:24 PM 35.3036 -81.5831 360° North 498 573 41,000  Level Atlanta Center
Fri 05:21:24 PM 35.4433 -81.5889 358° North 498 573 41,000  Level Atlanta Center
Fri 05:22:24 PM 35.5942 -81.6075 354° North 498 573 41,000  Level Atlanta Center
Fri 05:23:24 PM 35.7342 -81.6236 355° North 498 573 41,000  Level Atlanta Center
Fri 05:24:24 PM 35.8742 -81.6400 355° North 504 580 41,000  Level Atlanta Center
Fri 05:25:24 PM 36.0100 -81.6567 354° North 497 572 41,000  Level Atlanta Center
Fri 05:26:24 PM 36.1458 -81.6706 355° North 497 572 41,000  Level Atlanta Center
Fri 05:27:24 PM 36.2758 -81.6925 352° North 479 551 41,000  Level Atlanta Center
Fri 05:28:24 PM 36.3947 -81.7072 354° North 479 551 41,000  Level Atlanta Center
Fri 05:29:24 PM 36.5433 -81.7261 354° North 489 563 41,000  Level Atlanta Center
Fri 05:30:24 PM 36.6792 -81.7428 354° North 483 556 41,000  Level Atlanta Center
Fri 05:32:49 PM 36.9986 -81.7850 354° North 495 570 41,000  Level Indianapolis Center
Fri 05:33:51 PM 37.1386 -81.8050 354° North 505 581 41,000  Level Indianapolis Center
Fri 05:34:53 PM 37.3014 -81.8267 354° North 504 580 41,000  Level Indianapolis Center
Fri 05:35:55 PM 37.4417 -81.8453 354° North 505 581 41,000  Level Indianapolis Center
Fri 05:36:57 PM 37.5822 -81.8656 353° North 508 585 41,000  Level Indianapolis Center
Fri 05:37:59 PM 37.7233 -81.8831 354° North 510 587 41,000  Level Indianapolis Center
Fri 05:39:02 PM 37.8806 -81.9044 354° North 513 590 41,000  Level Indianapolis Center
Fri 05:40:04 PM 38.0236 -81.8967 North 513 590 41,000  Level Indianapolis Center
Fri 05:41:06 PM 38.1656 -81.8650 10° North 516 594 41,000  Level Indianapolis Center
Fri 05:42:08 PM 38.3086 -81.8328 10° North 518 596 41,000  Level Indianapolis Center
Fri 05:43:10 PM 38.4522 -81.8036 North 519 597 41,000  Level Indianapolis Center
Fri 05:44:12 PM 38.5983 -81.8181 356° North 520 598 41,000  Level Indianapolis Center
Fri 05:45:14 PM 38.7392 -81.8631 346° North 514 592 41,000  Level Indianapolis Center
Fri 05:46:16 PM 38.9044 -81.9069 348° North 499 574 41,000  Level Indianapolis Center
Fri 05:47:18 PM 39.0433 -81.9167 357° North 497 572 41,000  Level Indianapolis Center
Fri 05:48:20 PM 39.1839 -81.9256 357° North 502 578 41,000  Level Indianapolis Center
Fri 05:49:22 PM 39.3250 -81.9328 358° North 506 582 41,000  Level Indianapolis Center
Fri 05:50:24 PM 39.4667 -81.9422 357° North 508 585 41,000 -97 Level Indianapolis Center
Fri 05:51:26 PM 39.6081 -81.9517 357° North 507 583 40,800 -774 Descending Indianapolis Center
Fri 05:52:28 PM 39.7703 -81.9617 357° North 502 578 39,400 -1,355 Descending Indianapolis Center
Fri 05:53:30 PM 39.9100 -81.9706 357° North 499 574 38,000 -1,306 Descending Indianapolis Center
Fri 05:54:32 PM 40.0519 -81.9786 358° North 504 580 36,700 -1,065 Descending Indianapolis Center
Fri 05:55:34 PM 40.1928 -81.9894 357° North 503 579 35,800 -1,306 Descending Indianapolis Center
Fri 05:56:36 PM 40.3303 -81.9978 357° North 506 582 34,000 -2,400 Descending Indianapolis Center
Fri 05:57:39 PM 40.5033 -82.0100 357° North 528 608 30,800 -1,920 Descending Indianapolis Center
Fri 05:58:41 PM 40.6489 -82.0294 354° North 520 598 30,000 -475 Descending Indianapolis Center
Fri 05:59:20 PM 40.7478 -82.0494 351° North 523 602 30,000  Level Cleveland Center
Fri 06:00:20 PM 40.8914 -82.0581 357° North 523 602 30,000 -700 Level Cleveland Center
Fri 06:01:20 PM 41.0314 -82.0364 North 512 589 28,600 -1,300 Descending Cleveland Center
Fri 06:02:20 PM 41.1694 -82.0092 North 507 583 27,400 -1,600 Descending Cleveland Center
Fri 06:03:20 PM 41.3008 -81.9983 North 492 566 25,400 -1,700 Descending Cleveland Center
Fri 06:04:20 PM 41.3917 -82.0639 332° Northwest 420 483 24,000 -750 Descending Cleveland Center
Fri 06:05:20 PM 41.4547 -82.1872 304° West 380 437 23,900 -1,150 Descending Cleveland Center
Fri 06:06:20 PM 41.5172 -82.3275 301° West 386 444 21,700 -2,339 Descending Cleveland Center
Fri 06:07:18 PM 41.5736 -82.4483 302° West 395 455 19,300 -2,526 Descending Cleveland Center
Fri 06:07:55 PM 41.6058 -82.5186 302° West 385 443 17,700 -2,613 Descending Cleveland Center
Fri 06:08:20 PM 41.6281 -82.5694 300° West 392 451 16,600 -2,754 Descending Cleveland Center
Fri 06:08:56 PM 41.6603 -82.6344 304° West 365 420 14,900 -2,700 Descending Cleveland Center
Fri 06:09:20 PM 41.6761 -82.6711 300° West 373 429 13,900 -2,507 Descending Cleveland Center
Fri 06:10:03 PM 41.7161 -82.7614 301° West 348 400 12,100 -1,800 Descending Cleveland Center
Fri 06:10:20 PM 41.7264 -82.7783 309° West 362 417 12,100 -689 Level Cleveland Center
Fri 06:11:04 PM 41.7769 -82.8469 315° West 290 334 11,400 -800 Descending Cleveland Center
Fri 06:11:20 PM 41.7853 -82.8528 332° Northwest 326 375 11,300 -1,082 Descending Cleveland Center
Fri 06:12:05 PM 41.8339 -82.9186 315° West 272 313 10,300 -1,300 Descending Cleveland Center
Fri 06:12:20 PM 41.8358 -82.9269 287° West 291 335 10,000 -1,258 Descending Cleveland Center
Fri 06:13:07 PM 41.8633 -83.0117 294° West 267 307 9,000 -850 Descending Cleveland Center
Fri 06:14:20 PM 41.8906 -83.1019 292° West 253 291 8,300 -639 Descending Cleveland Center
Fri 06:15:09 PM 41.9142 -83.1697 295° West 205 236 7,700 -919 Descending Cleveland Center
Fri 06:16:11 PM 41.9356 -83.2378 293° West 199 229 6,600 -927 Descending Cleveland Center
Fri 06:17:12 PM 41.9317 -83.3075 266° West 204 235 5,800 -787 Descending Cleveland Center
Fri 06:18:13 PM 41.8867 -83.3586 220° Southwest 204 235 5,000 -541 Descending Cleveland Center
Fri 06:19:14 PM 41.8725 -83.4247 254° West 193 222 4,700 -492 Descending Cleveland Center
Fri 06:20:15 PM 41.8833 -83.5006 281° West 200 230 4,000 -344 Descending Cleveland Center
Fri 06:21:16 PM 41.9200 -83.5331 327° Northwest 173 199 4,000  Level Cleveland Center
Fri 06:22:17 PM 41.9683 -83.5183 13° North 173 199 4,000  Level Cleveland Center
Fri 06:23:19 PM 42.0106 -83.4897 27° Northeast 168 193 4,000  Level Cleveland Center
Fri 06:24:20 PM 42.0511 -83.4581 30° Northeast 170 196 4,000 -541 Level Cleveland Center
Fri 06:25:21 PM 42.0978 -83.4264 27° Northeast 173 199 2,900 -1,082 Descending Cleveland Center

Login

Don't have an account? Register now (free) for customized features, flight alerts, and more!